sensor_id;sensor_type;location;lat;lon;timestamp;P1;durP1;ratioP1;P2;durP2;ratioP2
59458;SDS011;45269;43.568;22.244;2022-10-30T00:00:25;52.40;;;40.38;;
59458;SDS011;45269;43.568;22.244;2022-10-30T00:02:51;41.58;;;33.25;;
59458;SDS011;45269;43.568;22.244;2022-10-30T00:05:16;34.00;;;28.65;;
59458;SDS011;45269;43.568;22.244;2022-10-30T00:07:42;38.25;;;31.55;;
59458;SDS011;45269;43.568;22.244;2022-10-30T00:10:07;34.75;;;30.70;;
59458;SDS011;45269;43.568;22.244;2022-10-30T00:12:33;30.13;;;24.30;;
59458;SDS011;45269;43.568;22.244;2022-10-30T00:14:58;28.33;;;24.08;;
59458;SDS011;45269;43.568;22.244;2022-10-30T00:17:24;24.67;;;21.98;;
59458;SDS011;45269;43.568;22.244;2022-10-30T00:19:49;27.42;;;22.98;;
59458;SDS011;45269;43.568;22.244;2022-10-30T00:22:14;30.88;;;25.98;;
59458;SDS011;45269;43.568;22.244;2022-10-30T00:24:40;28.02;;;23.42;;
59458;SDS011;45269;43.568;22.244;2022-10-30T00:27:05;30.90;;;25.58;;
59458;SDS011;45269;43.568;22.244;2022-10-30T00:29:31;32.42;;;28.35;;
59458;SDS011;45269;43.568;22.244;2022-10-30T00:31:56;46.60;;;38.85;;
59458;SDS011;45269;43.568;22.244;2022-10-30T00:34:21;43.65;;;35.33;;
59458;SDS011;45269;43.568;22.244;2022-10-30T00:36:47;35.97;;;31.85;;
59458;SDS011;45269;43.568;22.244;2022-10-30T00:39:12;38.67;;;30.48;;
59458;SDS011;45269;43.568;22.244;2022-10-30T00:41:37;34.85;;;26.90;;
59458;SDS011;45269;43.568;22.244;2022-10-30T00:46:49;28.10;;;23.60;;
59458;SDS011;45269;43.568;22.244;2022-10-30T00:49:15;31.83;;;26.02;;
59458;SDS011;45269;43.568;22.244;2022-10-30T00:51:41;39.08;;;30.20;;
59458;SDS011;45269;43.568;22.244;2022-10-30T00:54:07;65.72;;;44.20;;
59458;SDS011;45269;43.568;22.244;2022-10-30T00:56:33;48.60;;;33.10;;
59458;SDS011;45269;43.568;22.244;2022-10-30T00:59:02;95.55;;;57.95;;
59458;SDS011;45269;43.568;22.244;2022-10-30T01:01:28;64.47;;;48.03;;
59458;SDS011;45269;43.568;22.244;2022-10-30T01:03:56;44.80;;;35.22;;
59458;SDS011;45269;43.568;22.244;2022-10-30T01:06:23;39.30;;;32.22;;
59458;SDS011;45269;43.568;22.244;2022-10-30T01:08:48;75.05;;;55.95;;
59458;SDS011;45269;43.568;22.244;2022-10-30T01:11:15;67.38;;;51.67;;
59458;SDS011;45269;43.568;22.244;2022-10-30T01:13:40;29.70;;;24.52;;
59458;SDS011;45269;43.568;22.244;2022-10-30T01:18:39;22.92;;;19.90;;
59458;SDS011;45269;43.568;22.244;2022-10-30T01:28:59;23.25;;;19.33;;
59458;SDS011;45269;43.568;22.244;2022-10-30T01:34:20;28.77;;;25.30;;
59458;SDS011;45269;43.568;22.244;2022-10-30T01:37:06;31.13;;;27.25;;
59458;SDS011;45269;43.568;22.244;2022-10-30T01:39:34;29.20;;;25.92;;
59458;SDS011;45269;43.568;22.244;2022-10-30T01:42:07;29.17;;;25.88;;
59458;SDS011;45269;43.568;22.244;2022-10-30T01:44:32;30.17;;;24.50;;
59458;SDS011;45269;43.568;22.244;2022-10-30T01:52:12;43.97;;;31.45;;
59458;SDS011;45269;43.568;22.244;2022-10-30T01:57:18;77.55;;;56.40;;
59458;SDS011;45269;43.568;22.244;2022-10-30T02:00:05;100.32;;;72.97;;
59458;SDS011;45269;43.568;22.244;2022-10-30T02:02:31;78.75;;;62.00;;
59458;SDS011;45269;43.568;22.244;2022-10-30T02:04:57;45.80;;;40.95;;
59458;SDS011;45269;43.568;22.244;2022-10-30T02:07:22;27.38;;;23.90;;
59458;SDS011;45269;43.568;22.244;2022-10-30T02:09:49;29.02;;;25.98;;
59458;SDS011;45269;43.568;22.244;2022-10-30T02:12:15;28.38;;;25.27;;
59458;SDS011;45269;43.568;22.244;2022-10-30T02:14:42;27.00;;;24.27;;
59458;SDS011;45269;43.568;22.244;2022-10-30T02:17:08;32.33;;;28.98;;
59458;SDS011;45269;43.568;22.244;2022-10-30T02:19:33;29.60;;;26.23;;
59458;SDS011;45269;43.568;22.244;2022-10-30T02:21:59;30.23;;;27.15;;
59458;SDS011;45269;43.568;22.244;2022-10-30T02:24:24;30.27;;;26.63;;
59458;SDS011;45269;43.568;22.244;2022-10-30T02:26:50;39.13;;;28.63;;
59458;SDS011;45269;43.568;22.244;2022-10-30T02:29:15;32.08;;;28.73;;
59458;SDS011;45269;43.568;22.244;2022-10-30T02:31:44;40.53;;;32.55;;
59458;SDS011;45269;43.568;22.244;2022-10-30T02:34:10;38.08;;;30.88;;
59458;SDS011;45269;43.568;22.244;2022-10-30T02:36:35;32.75;;;29.15;;
59458;SDS011;45269;43.568;22.244;2022-10-30T02:39:00;43.03;;;32.90;;
59458;SDS011;45269;43.568;22.244;2022-10-30T02:41:26;43.00;;;33.28;;
59458;SDS011;45269;43.568;22.244;2022-10-30T02:43:51;38.30;;;29.92;;
59458;SDS011;45269;43.568;22.244;2022-10-30T02:46:17;37.83;;;30.38;;
59458;SDS011;45269;43.568;22.244;2022-10-30T02:48:43;39.42;;;32.72;;
59458;SDS011;45269;43.568;22.244;2022-10-30T02:51:08;40.35;;;30.50;;
59458;SDS011;45269;43.568;22.244;2022-10-30T02:53:33;35.65;;;29.33;;
59458;SDS011;45269;43.568;22.244;2022-10-30T02:56:09;41.20;;;32.63;;
59458;SDS011;45269;43.568;22.244;2022-10-30T02:58:35;42.50;;;32.00;;
59458;SDS011;45269;43.568;22.244;2022-10-30T03:03:31;38.55;;;27.83;;
59458;SDS011;45269;43.568;22.244;2022-10-30T03:05:59;44.25;;;32.38;;
59458;SDS011;45269;43.568;22.244;2022-10-30T03:08:24;45.55;;;35.63;;
59458;SDS011;45269;43.568;22.244;2022-10-30T03:10:49;45.25;;;33.22;;
59458;SDS011;45269;43.568;22.244;2022-10-30T03:13:15;41.88;;;33.75;;
59458;SDS011;45269;43.568;22.244;2022-10-30T03:15:40;38.95;;;28.52;;
59458;SDS011;45269;43.568;22.244;2022-10-30T03:18:05;36.45;;;29.48;;
59458;SDS011;45269;43.568;22.244;2022-10-30T03:20:31;38.65;;;29.65;;
59458;SDS011;45269;43.568;22.244;2022-10-30T03:22:56;38.53;;;31.10;;
59458;SDS011;45269;43.568;22.244;2022-10-30T03:25:21;40.15;;;31.90;;
59458;SDS011;45269;43.568;22.244;2022-10-30T03:27:47;38.33;;;31.98;;
59458;SDS011;45269;43.568;22.244;2022-10-30T03:30:13;42.40;;;37.75;;
59458;SDS011;45269;43.568;22.244;2022-10-30T03:32:38;37.70;;;32.00;;
59458;SDS011;45269;43.568;22.244;2022-10-30T03:35:03;40.28;;;32.70;;
59458;SDS011;45269;43.568;22.244;2022-10-30T03:37:29;36.35;;;31.33;;
59458;SDS011;45269;43.568;22.244;2022-10-30T03:39:54;45.88;;;31.63;;
59458;SDS011;45269;43.568;22.244;2022-10-30T03:42:19;37.35;;;30.35;;
59458;SDS011;45269;43.568;22.244;2022-10-30T03:44:45;41.85;;;33.15;;
59458;SDS011;45269;43.568;22.244;2022-10-30T03:47:10;45.38;;;34.40;;
59458;SDS011;45269;43.568;22.244;2022-10-30T03:49:35;41.97;;;33.60;;
59458;SDS011;45269;43.568;22.244;2022-10-30T03:52:01;33.33;;;27.08;;
59458;SDS011;45269;43.568;22.244;2022-10-30T03:54:26;36.13;;;30.73;;
59458;SDS011;45269;43.568;22.244;2022-10-30T03:56:51;34.47;;;30.73;;
59458;SDS011;45269;43.568;22.244;2022-10-30T03:59:17;35.33;;;29.05;;
59458;SDS011;45269;43.568;22.244;2022-10-30T04:01:42;34.42;;;28.08;;
59458;SDS011;45269;43.568;22.244;2022-10-30T04:04:07;33.63;;;28.65;;
59458;SDS011;45269;43.568;22.244;2022-10-30T04:06:33;37.55;;;31.60;;
59458;SDS011;45269;43.568;22.244;2022-10-30T04:08:58;34.00;;;29.77;;
59458;SDS011;45269;43.568;22.244;2022-10-30T04:11:23;33.05;;;28.38;;
59458;SDS011;45269;43.568;22.244;2022-10-30T04:13:49;32.25;;;28.50;;
59458;SDS011;45269;43.568;22.244;2022-10-30T04:16:14;36.78;;;32.03;;
59458;SDS011;45269;43.568;22.244;2022-10-30T04:18:39;33.40;;;29.83;;
59458;SDS011;45269;43.568;22.244;2022-10-30T04:21:05;34.13;;;30.42;;
59458;SDS011;45269;43.568;22.244;2022-10-30T04:23:30;36.10;;;30.25;;
59458;SDS011;45269;43.568;22.244;2022-10-30T04:25:55;33.15;;;29.48;;
59458;SDS011;45269;43.568;22.244;2022-10-30T04:28:23;32.17;;;26.73;;
59458;SDS011;45269;43.568;22.244;2022-10-30T04:30:49;31.65;;;26.45;;
59458;SDS011;45269;43.568;22.244;2022-10-30T04:33:14;35.20;;;30.10;;
59458;SDS011;45269;43.568;22.244;2022-10-30T04:35:40;34.40;;;28.70;;
59458;SDS011;45269;43.568;22.244;2022-10-30T04:38:06;34.80;;;30.95;;
59458;SDS011;45269;43.568;22.244;2022-10-30T04:40:33;32.95;;;28.38;;
59458;SDS011;45269;43.568;22.244;2022-10-30T04:42:58;32.10;;;28.33;;
59458;SDS011;45269;43.568;22.244;2022-10-30T04:45:24;33.25;;;29.65;;
59458;SDS011;45269;43.568;22.244;2022-10-30T04:47:50;35.13;;;31.33;;
59458;SDS011;45269;43.568;22.244;2022-10-30T04:50:15;32.15;;;28.55;;
59458;SDS011;45269;43.568;22.244;2022-10-30T04:52:41;29.67;;;26.42;;
59458;SDS011;45269;43.568;22.244;2022-10-30T04:55:07;30.10;;;26.90;;
59458;SDS011;45269;43.568;22.244;2022-10-30T04:57:33;31.83;;;27.38;;
59458;SDS011;45269;43.568;22.244;2022-10-30T05:00:01;29.58;;;26.17;;
59458;SDS011;45269;43.568;22.244;2022-10-30T05:02:26;34.17;;;30.63;;
59458;SDS011;45269;43.568;22.244;2022-10-30T05:04:52;28.70;;;25.65;;
59458;SDS011;45269;43.568;22.244;2022-10-30T05:07:17;28.48;;;24.58;;
59458;SDS011;45269;43.568;22.244;2022-10-30T05:09:42;25.90;;;23.17;;
59458;SDS011;45269;43.568;22.244;2022-10-30T05:12:08;35.05;;;29.33;;
59458;SDS011;45269;43.568;22.244;2022-10-30T05:14:34;38.80;;;31.73;;
59458;SDS011;45269;43.568;22.244;2022-10-30T05:16:59;30.50;;;25.50;;
59458;SDS011;45269;43.568;22.244;2022-10-30T05:19:25;28.67;;;22.88;;
59458;SDS011;45269;43.568;22.244;2022-10-30T05:21:50;26.40;;;23.40;;
59458;SDS011;45269;43.568;22.244;2022-10-30T05:24:16;27.90;;;21.85;;
59458;SDS011;45269;43.568;22.244;2022-10-30T05:26:41;19.38;;;17.42;;
59458;SDS011;45269;43.568;22.244;2022-10-30T05:29:06;16.50;;;14.80;;
59458;SDS011;45269;43.568;22.244;2022-10-30T05:31:32;20.02;;;18.02;;
59458;SDS011;45269;43.568;22.244;2022-10-30T05:33:57;17.27;;;15.25;;
59458;SDS011;45269;43.568;22.244;2022-10-30T05:36:22;37.92;;;31.30;;
59458;SDS011;45269;43.568;22.244;2022-10-30T05:38:48;35.80;;;29.63;;
59458;SDS011;45269;43.568;22.244;2022-10-30T05:41:13;28.20;;;24.58;;
59458;SDS011;45269;43.568;22.244;2022-10-30T05:43:38;20.75;;;17.98;;
59458;SDS011;45269;43.568;22.244;2022-10-30T05:46:04;24.67;;;21.48;;
59458;SDS011;45269;43.568;22.244;2022-10-30T05:48:29;22.02;;;19.65;;
59458;SDS011;45269;43.568;22.244;2022-10-30T05:50:55;27.23;;;20.75;;
59458;SDS011;45269;43.568;22.244;2022-10-30T05:53:20;35.15;;;31.42;;
59458;SDS011;45269;43.568;22.244;2022-10-30T05:55:46;20.10;;;18.10;;
59458;SDS011;45269;43.568;22.244;2022-10-30T05:58:11;20.85;;;17.92;;
59458;SDS011;45269;43.568;22.244;2022-10-30T06:00:36;48.30;;;38.67;;
59458;SDS011;45269;43.568;22.244;2022-10-30T06:03:05;91.25;;;72.78;;
59458;SDS011;45269;43.568;22.244;2022-10-30T06:05:31;102.82;;;83.50;;
59458;SDS011;45269;43.568;22.244;2022-10-30T06:07:57;148.88;;;110.85;;
59458;SDS011;45269;43.568;22.244;2022-10-30T06:10:23;173.45;;;136.95;;
59458;SDS011;45269;43.568;22.244;2022-10-30T06:12:52;121.35;;;92.60;;
59458;SDS011;45269;43.568;22.244;2022-10-30T06:15:17;98.63;;;76.22;;
59458;SDS011;45269;43.568;22.244;2022-10-30T06:17:43;83.60;;;68.03;;
59458;SDS011;45269;43.568;22.244;2022-10-30T06:20:08;87.70;;;74.68;;
59458;SDS011;45269;43.568;22.244;2022-10-30T06:22:34;143.20;;;127.28;;
59458;SDS011;45269;43.568;22.244;2022-10-30T06:24:59;40.75;;;36.33;;
59458;SDS011;45269;43.568;22.244;2022-10-30T06:27:24;32.97;;;29.42;;
59458;SDS011;45269;43.568;22.244;2022-10-30T06:29:50;78.70;;;64.72;;
59458;SDS011;45269;43.568;22.244;2022-10-30T06:32:18;47.95;;;42.80;;
59458;SDS011;45269;43.568;22.244;2022-10-30T06:34:44;72.35;;;61.88;;
59458;SDS011;45269;43.568;22.244;2022-10-30T06:37:09;84.50;;;69.65;;
59458;SDS011;45269;43.568;22.244;2022-10-30T06:39:35;83.68;;;74.47;;
59458;SDS011;45269;43.568;22.244;2022-10-30T06:42:00;81.75;;;71.38;;
59458;SDS011;45269;43.568;22.244;2022-10-30T06:44:26;78.78;;;68.40;;
59458;SDS011;45269;43.568;22.244;2022-10-30T06:46:52;81.47;;;68.55;;
59458;SDS011;45269;43.568;22.244;2022-10-30T06:49:17;59.65;;;47.30;;
59458;SDS011;45269;43.568;22.244;2022-10-30T06:51:42;26.08;;;23.27;;
59458;SDS011;45269;43.568;22.244;2022-10-30T06:54:08;16.77;;;15.00;;
59458;SDS011;45269;43.568;22.244;2022-10-30T06:56:33;103.05;;;85.50;;
59458;SDS011;45269;43.568;22.244;2022-10-30T06:58:59;44.42;;;39.55;;
59458;SDS011;45269;43.568;22.244;2022-10-30T07:01:24;29.75;;;26.38;;
59458;SDS011;45269;43.568;22.244;2022-10-30T07:03:49;24.98;;;22.45;;
59458;SDS011;45269;43.568;22.244;2022-10-30T07:06:14;26.00;;;23.30;;
59458;SDS011;45269;43.568;22.244;2022-10-30T07:08:40;26.60;;;23.77;;
59458;SDS011;45269;43.568;22.244;2022-10-30T07:11:05;31.35;;;24.58;;
59458;SDS011;45269;43.568;22.244;2022-10-30T07:13:30;24.38;;;21.13;;
59458;SDS011;45269;43.568;22.244;2022-10-30T07:15:57;85.05;;;49.22;;
59458;SDS011;45269;43.568;22.244;2022-10-30T07:18:22;119.75;;;74.72;;
59458;SDS011;45269;43.568;22.244;2022-10-30T07:20:52;115.75;;;79.82;;
59458;SDS011;45269;43.568;22.244;2022-10-30T07:23:17;60.47;;;42.63;;
59458;SDS011;45269;43.568;22.244;2022-10-30T07:25:42;46.97;;;40.05;;
59458;SDS011;45269;43.568;22.244;2022-10-30T07:28:08;20.50;;;17.38;;
59458;SDS011;45269;43.568;22.244;2022-10-30T07:30:33;18.33;;;15.50;;
59458;SDS011;45269;43.568;22.244;2022-10-30T07:32:59;15.18;;;13.70;;
59458;SDS011;45269;43.568;22.244;2022-10-30T07:35:26;14.23;;;12.75;;
59458;SDS011;45269;43.568;22.244;2022-10-30T07:37:52;12.77;;;11.50;;
59458;SDS011;45269;43.568;22.244;2022-10-30T07:40:17;11.55;;;10.45;;
59458;SDS011;45269;43.568;22.244;2022-10-30T07:42:42;28.90;;;25.85;;
59458;SDS011;45269;43.568;22.244;2022-10-30T07:45:08;13.00;;;9.98;;
59458;SDS011;45269;43.568;22.244;2022-10-30T07:47:37;44.78;;;31.92;;
59458;SDS011;45269;43.568;22.244;2022-10-30T07:50:03;17.92;;;11.05;;
59458;SDS011;45269;43.568;22.244;2022-10-30T07:52:30;13.70;;;11.20;;
59458;SDS011;45269;43.568;22.244;2022-10-30T07:54:55;16.98;;;12.98;;
59458;SDS011;45269;43.568;22.244;2022-10-30T07:57:20;13.70;;;12.10;;
59458;SDS011;45269;43.568;22.244;2022-10-30T07:59:46;15.30;;;12.25;;
59458;SDS011;45269;43.568;22.244;2022-10-30T08:02:11;11.45;;;7.90;;
59458;SDS011;45269;43.568;22.244;2022-10-30T08:04:36;10.40;;;7.65;;
59458;SDS011;45269;43.568;22.244;2022-10-30T08:07:02;11.77;;;7.78;;
59458;SDS011;45269;43.568;22.244;2022-10-30T08:09:27;8.95;;;7.05;;
59458;SDS011;45269;43.568;22.244;2022-10-30T08:11:52;9.60;;;8.57;;
59458;SDS011;45269;43.568;22.244;2022-10-30T08:14:18;11.38;;;8.07;;
59458;SDS011;45269;43.568;22.244;2022-10-30T08:16:43;10.68;;;6.55;;
59458;SDS011;45269;43.568;22.244;2022-10-30T08:19:09;7.78;;;6.43;;
59458;SDS011;45269;43.568;22.244;2022-10-30T08:21:34;8.57;;;6.35;;
59458;SDS011;45269;43.568;22.244;2022-10-30T08:23:59;7.63;;;6.35;;
59458;SDS011;45269;43.568;22.244;2022-10-30T08:26:25;7.25;;;6.22;;
59458;SDS011;45269;43.568;22.244;2022-10-30T08:28:50;7.32;;;6.15;;
59458;SDS011;45269;43.568;22.244;2022-10-30T08:31:15;7.40;;;6.60;;
59458;SDS011;45269;43.568;22.244;2022-10-30T08:33:41;9.18;;;6.57;;
59458;SDS011;45269;43.568;22.244;2022-10-30T08:36:06;7.75;;;6.13;;
59458;SDS011;45269;43.568;22.244;2022-10-30T08:38:32;9.18;;;5.57;;
59458;SDS011;45269;43.568;22.244;2022-10-30T08:40:57;8.07;;;5.70;;
59458;SDS011;45269;43.568;22.244;2022-10-30T08:43:23;5.90;;;5.30;;
59458;SDS011;45269;43.568;22.244;2022-10-30T08:45:50;12.20;;;6.20;;
59458;SDS011;45269;43.568;22.244;2022-10-30T08:48:16;10.20;;;5.70;;
59458;SDS011;45269;43.568;22.244;2022-10-30T08:50:41;17.10;;;10.90;;
59458;SDS011;45269;43.568;22.244;2022-10-30T08:53:08;7.45;;;6.18;;
59458;SDS011;45269;43.568;22.244;2022-10-30T08:55:34;7.05;;;5.75;;
59458;SDS011;45269;43.568;22.244;2022-10-30T08:58:00;8.02;;;6.57;;
59458;SDS011;45269;43.568;22.244;2022-10-30T09:00:25;9.57;;;7.70;;
59458;SDS011;45269;43.568;22.244;2022-10-30T09:02:51;10.63;;;7.20;;
59458;SDS011;45269;43.568;22.244;2022-10-30T09:05:16;7.10;;;6.40;;
59458;SDS011;45269;43.568;22.244;2022-10-30T09:07:42;9.00;;;6.70;;
59458;SDS011;45269;43.568;22.244;2022-10-30T09:10:07;14.25;;;10.27;;
59458;SDS011;45269;43.568;22.244;2022-10-30T09:12:33;14.52;;;11.13;;
59458;SDS011;45269;43.568;22.244;2022-10-30T09:14:58;17.13;;;15.25;;
59458;SDS011;45269;43.568;22.244;2022-10-30T09:17:24;7.95;;;7.13;;
59458;SDS011;45269;43.568;22.244;2022-10-30T09:19:49;10.07;;;6.40;;
59458;SDS011;45269;43.568;22.244;2022-10-30T09:22:15;9.90;;;5.90;;
59458;SDS011;45269;43.568;22.244;2022-10-30T09:24:40;7.40;;;5.78;;
59458;SDS011;45269;43.568;22.244;2022-10-30T09:27:06;7.75;;;5.97;;
59458;SDS011;45269;43.568;22.244;2022-10-30T09:29:31;7.65;;;5.78;;
59458;SDS011;45269;43.568;22.244;2022-10-30T09:31:57;7.22;;;5.57;;
59458;SDS011;45269;43.568;22.244;2022-10-30T09:34:22;9.18;;;6.10;;
59458;SDS011;45269;43.568;22.244;2022-10-30T09:36:48;130.90;;;112.15;;
59458;SDS011;45269;43.568;22.244;2022-10-30T09:39:13;60.58;;;44.88;;
59458;SDS011;45269;43.568;22.244;2022-10-30T09:49:47;10.50;;;9.20;;
59458;SDS011;45269;43.568;22.244;2022-10-30T09:52:27;7.85;;;6.25;;
59458;SDS011;45269;43.568;22.244;2022-10-30T10:00:09;6.90;;;4.95;;
59458;SDS011;45269;43.568;22.244;2022-10-30T10:02:36;6.35;;;5.13;;
59458;SDS011;45269;43.568;22.244;2022-10-30T10:05:14;5.57;;;4.80;;
59458;SDS011;45269;43.568;22.244;2022-10-30T10:07:41;6.93;;;5.30;;
59458;SDS011;45269;43.568;22.244;2022-10-30T10:10:14;9.32;;;5.45;;
59458;SDS011;45269;43.568;22.244;2022-10-30T10:12:44;9.60;;;6.15;;
59458;SDS011;45269;43.568;22.244;2022-10-30T10:15:28;8.43;;;5.80;;
59458;SDS011;45269;43.568;22.244;2022-10-30T10:17:57;8.38;;;5.78;;
59458;SDS011;45269;43.568;22.244;2022-10-30T10:20:26;6.35;;;5.18;;
59458;SDS011;45269;43.568;22.244;2022-10-30T10:22:52;5.97;;;5.38;;
59458;SDS011;45269;43.568;22.244;2022-10-30T10:25:19;7.03;;;6.25;;
59458;SDS011;45269;43.568;22.244;2022-10-30T10:30:12;7.93;;;6.07;;
59458;SDS011;45269;43.568;22.244;2022-10-30T10:32:51;6.10;;;5.40;;
59458;SDS011;45269;43.568;22.244;2022-10-30T10:48:30;5.55;;;5.03;;
59458;SDS011;45269;43.568;22.244;2022-10-30T10:50:57;13.38;;;10.88;;
59458;SDS011;45269;43.568;22.244;2022-10-30T10:53:43;6.03;;;4.78;;
59458;SDS011;45269;43.568;22.244;2022-10-30T10:56:10;5.53;;;4.28;;
59458;SDS011;45269;43.568;22.244;2022-10-30T10:58:49;5.45;;;4.90;;
59458;SDS011;45269;43.568;22.244;2022-10-30T11:04:01;8.43;;;4.70;;
59458;SDS011;45269;43.568;22.244;2022-10-30T11:06:31;6.00;;;5.40;;
59458;SDS011;45269;43.568;22.244;2022-10-30T11:09:10;7.53;;;5.40;;
59458;SDS011;45269;43.568;22.244;2022-10-30T11:11:36;6.38;;;5.40;;
59458;SDS011;45269;43.568;22.244;2022-10-30T11:14:04;8.23;;;5.47;;
59458;SDS011;45269;43.568;22.244;2022-10-30T11:16:34;6.53;;;4.97;;
59458;SDS011;45269;43.568;22.244;2022-10-30T11:19:03;6.70;;;5.28;;
59458;SDS011;45269;43.568;22.244;2022-10-30T11:21:33;7.55;;;6.38;;
59458;SDS011;45269;43.568;22.244;2022-10-30T11:23:59;6.38;;;5.35;;
59458;SDS011;45269;43.568;22.244;2022-10-30T11:26:25;6.97;;;5.90;;
59458;SDS011;45269;43.568;22.244;2022-10-30T11:28:52;7.30;;;6.22;;
59458;SDS011;45269;43.568;22.244;2022-10-30T11:33:43;6.72;;;5.72;;
59458;SDS011;45269;43.568;22.244;2022-10-30T11:36:08;6.95;;;5.35;;
59458;SDS011;45269;43.568;22.244;2022-10-30T11:38:34;8.23;;;6.55;;
59458;SDS011;45269;43.568;22.244;2022-10-30T11:40:59;8.63;;;6.10;;
59458;SDS011;45269;43.568;22.244;2022-10-30T11:43:25;7.55;;;6.10;;
59458;SDS011;45269;43.568;22.244;2022-10-30T11:45:51;7.72;;;6.05;;
59458;SDS011;45269;43.568;22.244;2022-10-30T11:48:29;8.88;;;6.10;;
59458;SDS011;45269;43.568;22.244;2022-10-30T11:53:22;9.13;;;5.90;;
59458;SDS011;45269;43.568;22.244;2022-10-30T11:55:49;7.10;;;5.80;;
59458;SDS011;45269;43.568;22.244;2022-10-30T11:59:17;8.15;;;6.10;;
59458;SDS011;45269;43.568;22.244;2022-10-30T12:01:12;6.95;;;5.88;;
59458;SDS011;45269;43.568;22.244;2022-10-30T12:03:39;6.43;;;5.80;;
59458;SDS011;45269;43.568;22.244;2022-10-30T12:08:33;7.97;;;6.35;;
59458;SDS011;45269;43.568;22.244;2022-10-30T12:10:59;7.90;;;6.05;;
59458;SDS011;45269;43.568;22.244;2022-10-30T12:13:25;6.43;;;5.57;;
59458;SDS011;45269;43.568;22.244;2022-10-30T12:16:12;8.25;;;6.18;;
59458;SDS011;45269;43.568;22.244;2022-10-30T12:18:38;7.70;;;6.32;;
59458;SDS011;45269;43.568;22.244;2022-10-30T12:21:04;7.05;;;6.35;;
59458;SDS011;45269;43.568;22.244;2022-10-30T12:23:29;7.32;;;6.30;;
59458;SDS011;45269;43.568;22.244;2022-10-30T12:26:07;7.22;;;5.97;;
59458;SDS011;45269;43.568;22.244;2022-10-30T12:28:33;8.20;;;6.55;;
59458;SDS011;45269;43.568;22.244;2022-10-30T12:33:46;8.68;;;6.82;;
59458;SDS011;45269;43.568;22.244;2022-10-30T12:36:15;10.90;;;7.45;;
59458;SDS011;45269;43.568;22.244;2022-10-30T12:38:44;10.20;;;6.70;;
59458;SDS011;45269;43.568;22.244;2022-10-30T12:41:24;7.95;;;7.15;;
59458;SDS011;45269;43.568;22.244;2022-10-30T12:43:54;54.55;;;43.80;;
59458;SDS011;45269;43.568;22.244;2022-10-30T12:46:29;16.17;;;14.45;;
59458;SDS011;45269;43.568;22.244;2022-10-30T12:49:10;28.90;;;26.10;;
59458;SDS011;45269;43.568;22.244;2022-10-30T12:51:40;11.57;;;10.05;;
59458;SDS011;45269;43.568;22.244;2022-10-30T12:54:13;15.93;;;9.90;;
59458;SDS011;45269;43.568;22.244;2022-10-30T12:56:42;11.65;;;9.32;;
59458;SDS011;45269;43.568;22.244;2022-10-30T13:01:59;14.27;;;10.80;;
59458;SDS011;45269;43.568;22.244;2022-10-30T13:04:27;12.65;;;10.55;;
59458;SDS011;45269;43.568;22.244;2022-10-30T13:06:56;14.13;;;9.98;;
59458;SDS011;45269;43.568;22.244;2022-10-30T13:14:37;12.60;;;10.70;;
59458;SDS011;45269;43.568;22.244;2022-10-30T13:17:08;9.13;;;7.95;;
59458;SDS011;45269;43.568;22.244;2022-10-30T13:19:34;9.85;;;7.93;;
59458;SDS011;45269;43.568;22.244;2022-10-30T13:29:42;35.97;;;25.90;;
59458;SDS011;45269;43.568;22.244;2022-10-30T13:40:31;22.15;;;18.05;;
59458;SDS011;45269;43.568;22.244;2022-10-30T13:46:11;14.13;;;10.70;;
59458;SDS011;45269;43.568;22.244;2022-10-30T13:53:24;10.75;;;9.55;;
59458;SDS011;45269;43.568;22.244;2022-10-30T13:55:50;12.95;;;10.20;;
59458;SDS011;45269;43.568;22.244;2022-10-30T14:08:32;9.43;;;8.45;;
59458;SDS011;45269;43.568;22.244;2022-10-30T14:11:00;24.98;;;22.52;;
59458;SDS011;45269;43.568;22.244;2022-10-30T14:13:26;15.55;;;13.95;;
59458;SDS011;45269;43.568;22.244;2022-10-30T14:15:56;14.32;;;13.00;;
59458;SDS011;45269;43.568;22.244;2022-10-30T14:18:27;14.15;;;12.32;;
59458;SDS011;45269;43.568;22.244;2022-10-30T14:20:53;35.90;;;32.60;;
59458;SDS011;45269;43.568;22.244;2022-10-30T14:23:29;27.58;;;25.13;;
59458;SDS011;45269;43.568;22.244;2022-10-30T14:28:31;23.02;;;20.92;;
59458;SDS011;45269;43.568;22.244;2022-10-30T14:33:45;33.05;;;29.73;;
59458;SDS011;45269;43.568;22.244;2022-10-30T14:36:23;23.77;;;21.48;;
59458;SDS011;45269;43.568;22.244;2022-10-30T14:41:20;16.73;;;13.98;;
59458;SDS011;45269;43.568;22.244;2022-10-30T14:43:51;22.80;;;20.40;;
59458;SDS011;45269;43.568;22.244;2022-10-30T14:49:24;17.00;;;14.40;;
59458;SDS011;45269;43.568;22.244;2022-10-30T14:51:53;23.52;;;21.13;;
59458;SDS011;45269;43.568;22.244;2022-10-30T14:54:28;16.80;;;14.93;;
59458;SDS011;45269;43.568;22.244;2022-10-30T14:56:56;33.72;;;30.08;;
59458;SDS011;45269;43.568;22.244;2022-10-30T14:59:22;25.30;;;22.08;;
59458;SDS011;45269;43.568;22.244;2022-10-30T15:04:24;12.95;;;11.57;;
59458;SDS011;45269;43.568;22.244;2022-10-30T15:12:17;17.33;;;15.48;;
59458;SDS011;45269;43.568;22.244;2022-10-30T15:14:48;20.75;;;15.63;;
59458;SDS011;45269;43.568;22.244;2022-10-30T15:20:00;18.80;;;16.80;;
59458;SDS011;45269;43.568;22.244;2022-10-30T15:22:27;19.08;;;17.13;;
59458;SDS011;45269;43.568;22.244;2022-10-30T15:24:54;20.67;;;18.48;;
59458;SDS011;45269;43.568;22.244;2022-10-30T15:27:20;15.40;;;13.45;;
59458;SDS011;45269;43.568;22.244;2022-10-30T15:29:50;14.88;;;13.00;;
59458;SDS011;45269;43.568;22.244;2022-10-30T15:32:17;20.83;;;15.65;;
59458;SDS011;45269;43.568;22.244;2022-10-30T15:37:21;27.98;;;21.98;;
59458;SDS011;45269;43.568;22.244;2022-10-30T15:39:46;27.73;;;21.98;;
59458;SDS011;45269;43.568;22.244;2022-10-30T15:42:12;33.90;;;24.92;;
59458;SDS011;45269;43.568;22.244;2022-10-30T15:44:38;39.92;;;28.25;;
59458;SDS011;45269;43.568;22.244;2022-10-30T15:47:09;39.30;;;26.95;;
59458;SDS011;45269;43.568;22.244;2022-10-30T15:49:37;26.55;;;22.63;;
59458;SDS011;45269;43.568;22.244;2022-10-30T15:52:27;25.35;;;21.13;;
59458;SDS011;45269;43.568;22.244;2022-10-30T15:54:53;23.63;;;19.55;;
59458;SDS011;45269;43.568;22.244;2022-10-30T15:57:23;25.83;;;21.35;;
59458;SDS011;45269;43.568;22.244;2022-10-30T15:59:51;44.55;;;32.00;;
59458;SDS011;45269;43.568;22.244;2022-10-30T16:02:21;78.28;;;52.13;;
59458;SDS011;45269;43.568;22.244;2022-10-30T16:04:46;132.70;;;93.57;;
59458;SDS011;45269;43.568;22.244;2022-10-30T16:07:16;73.13;;;60.33;;
59458;SDS011;45269;43.568;22.244;2022-10-30T16:09:50;91.13;;;71.90;;
59458;SDS011;45269;43.568;22.244;2022-10-30T16:12:16;70.75;;;63.38;;
59458;SDS011;45269;43.568;22.244;2022-10-30T16:14:41;51.80;;;45.53;;
59458;SDS011;45269;43.568;22.244;2022-10-30T16:17:07;43.10;;;37.22;;
59458;SDS011;45269;43.568;22.244;2022-10-30T16:19:36;107.57;;;97.30;;
59458;SDS011;45269;43.568;22.244;2022-10-30T16:22:03;235.88;;;139.57;;
59458;SDS011;45269;43.568;22.244;2022-10-30T16:24:30;246.45;;;126.13;;
59458;SDS011;45269;43.568;22.244;2022-10-30T16:29:31;419.50;;;220.30;;